Accueil
METAR-TAF:

METAR-TAF

Aéroports :

Valladolid, Espagne

Aéroport de Valladolid

latitude: 41-43N, longitude: 004-51W, altitude: 849 m

Observation

Le bulletin a été fait il y a 18 minutes, à 10:30 UTC
Vent 6 kt de sud, variant entre est/sud-est et sud/sud-ouest
Température 10°C
Humidité 40%
Pression 1016 hPa
Visibilité 10 km ou plus
pas de nuages en-dessous de 1500 mètres et pas de cumulonimbus.

METAR: LEVD 221030Z 17006KT 120V200 CAVOK 10/M03 Q1016

Heure: 11:48 (10:48 UTC)

Prévision

Le bulletin a été fait il y a 5 heures et 48 minutes, à 05:00 UTC
Prévision valable du 22 à 06 UTC au 23 à 06 UTC
Vent 5 kt de direction variable
Visibilité 10 km ou plus
pas de nuages en-dessous de 1500 mètres et pas de cumulonimbus.
Evoluant progressivement
du 22 à 14 UTC au 22 à 16 UTC
Vent 10 kt de sud-ouest avec des rafales jusqu'à 25 kt

TAF: LEVD 220500Z 2206/2306 VRB05KT CAVOK TX17/2215Z TNM01/2206Z BECMG 2214/2216 23010G25KT

Observations et prévisions météorologiques de plus de 4000 aéroports (messages METAR et TAF).

Les stations disponibles sont représentées par des disques jaunes et rouges sur la carte.

Passer la souris dessus pour voir le nom de la station.

Cliquer dessus pour voir les observations et prévisions météorologiques.

Pour changer de carte: cliquez sur les boutons verts avec une croix noire pour zoomer, sur le bouton vert avec un tiret pour effectuer un zoom arrière, ou sur les flèches vertes pour les cartes adjacentes.


METAR-TAF: